Flight Track Log - Related Links

Times and Time Zones

All times are in EDT time to prevent confusion due to time zone crossing. See the SLI231 flight status page for this flight to view local times or setup timezone preferences in your user account.

Time Position Orientation Groundspeed Altitude Reporting Facility
EDT Latitude Longitude Course Direction KTS MPH feet Rate Location/Type
Fri 04:23:00 PM 25.3538 -103.2504 146° Southeast  Level Estimated
Fri 04:24:00 PM 25.2822 -103.1971 146° Southeast  Level Estimated
Fri 04:25:00 PM 25.2107 -103.1439 146° Southeast  Level Estimated
Fri 04:26:00 PM 25.1391 -103.0908 146° Southeast  Level Estimated
Fri 04:27:00 PM 25.0675 -103.0377 146° Southeast  Level Estimated
Fri 04:28:00 PM 24.9959 -102.9846 146° Southeast  Level Estimated
Fri 04:29:00 PM 24.9243 -102.9317 146° Southeast  Level Estimated
Fri 04:30:00 PM 24.8526 -102.8788 146° Southeast  Level Estimated
Fri 04:31:00 PM 24.7810 -102.8259 146° Southeast  Level Estimated
Fri 04:32:00 PM 24.7093 -102.7732 146° Southeast  Level Estimated
Fri 04:33:00 PM 24.6376 -102.7204 146° Southeast  Level Estimated
Fri 04:34:00 PM 24.5658 -102.6678 146° Southeast  Level Estimated
Fri 04:35:00 PM 24.4941 -102.6152 146° Southeast  Level Estimated
Fri 04:36:00 PM 24.4223 -102.5626 146° Southeast  Level Estimated
Fri 04:37:00 PM 24.3505 -102.5102 146° Southeast  Level Estimated
Fri 04:38:00 PM 24.2787 -102.4577 146° Southeast  Level Estimated
Fri 04:39:00 PM 24.2069 -102.4054 146° Southeast  Level Estimated
Fri 04:40:00 PM 24.1351 -102.3531 146° Southeast  Level Estimated
Fri 04:41:00 PM 24.0632 -102.3008 146° Southeast  Level Estimated
Fri 04:42:00 PM 23.9914 -102.2487 146° Southeast  Level Estimated
Fri 04:43:00 PM 23.9195 -102.1965 146° Southeast  Level Estimated
Fri 04:44:00 PM 23.8476 -102.1445 146° Southeast  Level Estimated
Fri 04:45:00 PM 23.7757 -102.0925 147° Southeast  Level Estimated
Fri 04:46:00 PM 23.7037 -102.0405 147° Southeast  Level Estimated
Fri 04:47:00 PM 23.6318 -101.9886 147° Southeast  Level Estimated
Fri 04:48:00 PM 23.5598 -101.9368 147° Southeast  Level Estimated
Fri 04:49:00 PM 23.4878 -101.8850 147° Southeast  Level Estimated
Fri 04:50:00 PM 23.4158 -101.8333 147° Southeast  Level Estimated
Fri 04:51:00 PM 23.3438 -101.7816 147° Southeast  Level Estimated
Fri 04:52:00 PM 23.2717 -101.7300 147° Southeast  Level Estimated
Fri 04:53:00 PM 23.1997 -101.6784 147° Southeast  Level Estimated
Fri 04:54:00 PM 23.1276 -101.6269 147° Southeast  Level Estimated
Fri 04:55:00 PM 23.0555 -101.5755 147° Southeast  Level Estimated
Fri 04:56:00 PM 22.9834 -101.5241 147° Southeast  Level Estimated
Fri 04:57:00 PM 22.9113 -101.4728 147° Southeast  Level Estimated
Fri 04:58:00 PM 22.8391 -101.4215 147° Southeast  Level Estimated
Fri 04:59:00 PM 22.7670 -101.3703 147° Southeast  Level Estimated
Fri 05:00:00 PM 22.6948 -101.3191 147° Southeast  Level Estimated
Fri 05:01:00 PM 22.6226 -101.2680 147° Southeast  Level Estimated
Fri 05:02:00 PM 22.5504 -101.2169 147° Southeast  Level Estimated
Fri 05:03:00 PM 22.4782 -101.1659 147° Southeast  Level Estimated
Fri 05:04:00 PM 22.4060 -101.1150 147° Southeast  Level Estimated
Fri 05:05:00 PM 22.3337 -101.0640 147° Southeast  Level Estimated
Fri 05:06:00 PM 22.2614 -101.0132 147° Southeast  Level Estimated
Fri 05:07:00 PM 22.1891 -100.9624 147° Southeast  Level Estimated
Fri 05:08:00 PM 22.1168 -100.9117 147° Southeast  Level Estimated
Fri 05:09:00 PM 22.0445 -100.8610 147° Southeast  Level Estimated
Fri 05:10:00 PM 21.9722 -100.8103 147° Southeast  Level Estimated
Fri 05:11:00 PM 21.8999 -100.7597 147° Southeast  Level Estimated
Fri 05:12:00 PM 21.8275 -100.7092 147° Southeast  Level Estimated
Fri 05:13:00 PM 21.7551 -100.6587 147° Southeast  Level Estimated
Fri 05:14:00 PM 21.6827 -100.6083 147° Southeast  Level Estimated
Fri 05:15:00 PM 21.6103 -100.5579 147° Southeast  Level Estimated
Fri 05:16:00 PM 21.5379 -100.5075 147° Southeast  Level Estimated
Fri 05:17:00 PM 21.4654 -100.4572 147° Southeast  Level Estimated
Fri 05:18:00 PM 21.3930 -100.4070 147° Southeast  Level Estimated
Fri 05:19:00 PM 21.3205 -100.3568 147° Southeast  Level Estimated
Fri 05:20:00 PM 21.2480 -100.3067 147° Southeast  Level Estimated
Fri 05:21:00 PM 21.1755 -100.2566 147° Southeast  Level Estimated
Fri 05:22:00 PM 21.1030 -100.2065 147° Southeast  Level Estimated
Fri 05:23:00 PM 21.0305 -100.1565 147° Southeast  Level Estimated
Fri 05:24:00 PM 20.9579 -100.1066 147° Southeast  Level Estimated
Fri 05:25:00 PM 20.8854 -100.0567 147° Southeast  Level Estimated
Fri 05:26:00 PM 20.8128 -100.0069 147° Southeast  Level Estimated
Fri 05:27:00 PM 20.7402 -99.9571 147° Southeast  Level Estimated
Fri 05:28:00 PM 20.6676 -99.9073 147° Southeast  Level Estimated
Fri 05:29:00 PM 20.5950 -99.8576 147° Southeast  Level Estimated
Fri 05:30:00 PM 20.5224 -99.8080 147° Southeast  Level Estimated
Fri 05:31:00 PM 20.4497 -99.7584 147° Southeast  Level Estimated
Fri 05:32:00 PM 20.3771 -99.7088 147° Southeast  Level Estimated
Fri 05:33:00 PM 20.3044 -99.6593 147° Southeast  Level Estimated
Fri 05:34:00 PM 20.2317 -99.6098 147° Southeast  Level Estimated
Fri 05:35:00 PM 20.1590 -99.5604 147° Southeast  Level Estimated
Fri 05:36:00 PM 20.0863 -99.5110 147° Southeast  Level Estimated
Fri 05:37:00 PM 20.0136 -99.4617 147° Southeast  Level Estimated
Fri 05:38:00 PM 19.9408 -99.4124 148° Southeast  Level Estimated
Fri 05:39:00 PM 19.8681 -99.3632 148° Southeast  Level Estimated
Fri 05:40:00 PM 19.7953 -99.3140 148° Southeast  Level Estimated

Login

Don't have an account? Register now (free) for customized features, flight alerts, and more!